createdAt,value
2019-04-23T00:02:16.618Z,7.03
2019-04-23T00:04:45.550Z,6.20
2019-04-23T00:07:33.557Z,6.50
2019-04-23T00:09:53.183Z,5.77
2019-04-23T00:12:24.342Z,5.97
2019-04-23T00:14:57.769Z,5.03
2019-04-23T00:17:17.925Z,5.03
2019-04-23T00:19:47.254Z,6.37
2019-04-23T00:22:17.818Z,6.23
2019-04-23T00:25:11.520Z,5.00
2019-04-23T00:29:53.128Z,6.37
2019-04-23T00:32:21.821Z,6.13
2019-04-23T00:37:25.733Z,6.57
2019-04-23T00:39:52.790Z,6.23
2019-04-23T00:42:23.890Z,6.00
2019-04-23T00:44:51.583Z,6.43
2019-04-23T00:47:23.190Z,6.20
2019-04-23T00:49:51.283Z,8.03
2019-04-23T00:52:23.706Z,7.73
2019-04-23T00:54:49.397Z,9.10
2019-04-23T00:57:24.181Z,7.40
2019-04-23T00:59:53.714Z,8.10
2019-04-23T01:02:16.723Z,7.13
2019-04-23T01:04:48.145Z,9.70
2019-04-23T01:07:18.558Z,7.13
2019-04-23T01:09:56.126Z,6.33
2019-04-23T01:12:29.260Z,6.83
2019-04-23T01:14:52.027Z,6.23
2019-04-23T01:17:30.337Z,6.57
2019-04-23T01:19:49.905Z,7.03
2019-04-23T01:22:02.168Z,6.63
2019-04-23T01:28:07.616Z,7.67
2019-04-23T01:30:41.862Z,6.43
2019-04-23T01:33:12.220Z,6.53
2019-04-23T01:35:39.630Z,5.97
2019-04-23T01:38:11.625Z,5.73
2019-04-23T01:43:07.931Z,7.80
2019-04-23T01:45:31.253Z,7.23
2019-04-23T01:48:09.555Z,6.90
2019-04-23T01:50:43.672Z,5.60
2019-04-23T01:53:16.764Z,8.00
2019-04-23T01:55:42.180Z,8.37
2019-04-23T02:00:43.706Z,6.77
2019-04-23T02:05:46.866Z,5.80
2019-04-23T02:08:11.074Z,8.03
2019-04-23T02:10:44.299Z,7.03
2019-04-23T02:13:16.621Z,7.53
2019-04-23T02:15:43.917Z,8.37
2019-04-23T02:18:14.443Z,8.97
2019-04-23T02:20:46.124Z,5.53
2019-04-23T02:28:28.653Z,6.07
2019-04-23T02:36:02.381Z,6.50
2019-04-23T02:38:40.250Z,6.53
2019-04-23T02:41:13.085Z,6.47
2019-04-23T02:43:22.145Z,9.47
2019-04-23T02:48:36.161Z,9.63
2019-04-23T02:50:55.552Z,8.17
2019-04-23T02:53:44.654Z,6.60
2019-04-23T02:56:11.586Z,6.90
2019-04-23T03:13:48.254Z,14.07
2019-04-23T03:16:31.814Z,21.27
2019-04-23T03:18:47.756Z,7.10
2019-04-23T03:24:11.564Z,8.63
2019-04-23T03:29:20.254Z,6.90
2019-04-23T03:37:11.321Z,5.70
2019-04-23T03:39:12.247Z,7.00
2019-04-23T03:41:50.317Z,8.30
2019-04-23T03:44:13.583Z,6.70
2019-04-23T03:46:39.956Z,6.70
2019-04-23T03:49:07.108Z,6.30
2019-04-23T03:52:02.948Z,6.97
2019-04-23T03:54:26.077Z,6.97
2019-04-23T03:57:00.621Z,6.33
2019-04-23T03:59:20.303Z,6.53
2019-04-23T04:01:48.642Z,6.30
2019-04-23T04:06:48.124Z,6.47
2019-04-23T04:11:34.689Z,6.20
2019-04-23T04:19:25.128Z,5.90
2019-04-23T04:21:51.997Z,5.87
2019-04-23T04:24:25.023Z,5.83
2019-04-23T04:26:51.454Z,5.43
2019-04-23T04:37:02.279Z,6.23
2019-04-23T04:39:10.041Z,5.93
2019-04-23T04:41:52.567Z,6.57
2019-04-23T04:44:26.383Z,5.60
2019-04-23T04:49:15.285Z,5.77
2019-04-23T04:59:13.978Z,5.77
2019-04-23T05:01:54.160Z,6.07
2019-04-23T05:04:24.343Z,5.47
2019-04-23T05:06:54.006Z,5.30
2019-04-23T05:09:31.776Z,6.10
2019-04-23T05:11:51.886Z,5.93
2019-04-23T05:14:08.460Z,6.00
2019-04-23T05:16:43.199Z,6.83
2019-04-23T05:19:26.959Z,6.33
2019-04-23T05:21:46.838Z,5.60
2019-04-23T05:24:08.772Z,5.60
2019-04-23T05:26:33.129Z,5.90
2019-04-23T05:29:14.716Z,5.53
2019-04-23T05:31:40.327Z,6.33
2019-04-23T05:34:23.870Z,6.00
2019-04-23T05:36:43.898Z,5.50
2019-04-23T05:39:15.542Z,5.90
2019-04-23T05:41:38.535Z,5.90
2019-04-23T05:44:17.117Z,5.70
2019-04-23T05:49:11.049Z,7.27
2019-04-23T05:51:46.421Z,5.60
2019-04-23T05:54:12.769Z,5.27
2019-04-23T05:56:38.789Z,5.50
2019-04-23T05:59:14.664Z,5.47
2019-04-23T06:07:11.395Z,7.60
2019-04-23T06:09:14.126Z,5.67
2019-04-23T06:16:41.877Z,5.90
2019-04-23T06:19:13.058Z,5.77
2019-04-23T06:21:56.154Z,4.77
2019-04-23T06:24:19.641Z,5.30
2019-04-23T06:29:19.392Z,5.87
2019-04-23T06:31:42.971Z,5.47
2019-04-23T06:36:39.959Z,5.40
2019-04-23T06:39:10.272Z,6.07
2019-04-23T06:44:15.951Z,5.47
2019-04-23T06:46:46.060Z,5.33
2019-04-23T06:49:09.396Z,5.53
2019-04-23T06:51:45.938Z,5.30
2019-04-23T06:54:13.451Z,6.07
2019-04-23T06:56:43.320Z,5.27
2019-04-23T06:59:11.966Z,5.27
2019-04-23T07:01:46.335Z,5.60
2019-04-23T07:04:14.319Z,5.20
2019-04-23T07:06:39.495Z,7.00
2019-04-23T07:09:12.090Z,5.60
2019-04-23T07:11:47.594Z,5.07
2019-04-23T07:14:28.682Z,5.57
2019-04-23T07:16:38.577Z,6.27
2019-04-23T07:21:39.263Z,4.33
2019-04-23T07:24:13.559Z,4.60
2019-04-23T07:29:09.051Z,4.60
2019-04-23T07:31:55.806Z,4.87
2019-04-23T07:41:56.344Z,6.70
2019-04-23T07:44:28.327Z,4.80
2019-04-23T07:49:49.147Z,4.77
2019-04-23T07:52:15.037Z,4.40
2019-04-23T07:54:44.166Z,5.13
2019-04-23T07:57:15.260Z,6.07
2019-04-23T07:59:44.048Z,6.93
2019-04-23T08:02:15.908Z,5.80
2019-04-23T08:04:56.425Z,5.60
2019-04-23T08:07:14.726Z,6.03
2019-04-23T08:09:48.474Z,6.53
2019-04-23T08:12:19.265Z,7.10
2019-04-23T08:14:48.226Z,7.27
2019-04-23T08:17:12.601Z,6.30
2019-04-23T08:19:49.847Z,5.97
2019-04-23T08:22:24.027Z,4.80
2019-04-23T08:27:14.156Z,5.93
2019-04-23T08:29:30.389Z,5.77
2019-04-23T08:32:16.804Z,6.20
2019-04-23T08:34:48.033Z,5.77
2019-04-23T08:37:15.455Z,5.10
2019-04-23T08:39:43.186Z,5.60
2019-04-23T08:45:03.142Z,6.00
2019-04-23T08:47:22.936Z,5.80
2019-04-23T08:49:50.745Z,6.03
2019-04-23T08:52:37.024Z,6.87
2019-04-23T08:57:24.032Z,5.23
2019-04-23T09:02:30.579Z,5.83
2019-04-23T09:04:53.804Z,6.10
2019-04-23T09:09:57.659Z,5.57
2019-04-23T09:12:28.552Z,6.30
2019-04-23T09:14:51.031Z,6.23
2019-04-23T09:17:27.566Z,5.30
2019-04-23T09:20:15.154Z,5.50
2019-04-23T09:24:57.438Z,4.50
2019-04-23T09:30:08.002Z,4.17
2019-04-23T09:37:34.684Z,4.77
2019-04-23T09:40:20.409Z,3.80
2019-04-23T09:42:46.426Z,3.77
2019-04-23T09:55:38.869Z,5.10
2019-04-23T09:58:15.519Z,4.97
2019-04-23T10:02:59.947Z,4.10
2019-04-23T10:05:25.096Z,4.00
2019-04-23T10:07:51.816Z,4.20
2019-04-23T10:10:12.181Z,4.83
2019-04-23T10:12:42.048Z,3.43
2019-04-23T10:15:18.764Z,4.13
2019-04-23T10:17:42.305Z,3.20
2019-04-23T10:20:11.047Z,3.40
2019-04-23T10:22:42.089Z,4.00
2019-04-23T10:25:10.991Z,3.10
2019-04-23T10:27:41.301Z,4.93
2019-04-23T10:30:10.247Z,3.70
2019-04-23T10:32:40.115Z,3.60
2019-04-23T10:35:20.941Z,3.40
2019-04-23T10:37:46.724Z,3.73
2019-04-23T10:40:15.378Z,4.30
2019-04-23T10:42:43.209Z,4.77
2019-04-23T10:45:39.653Z,4.80
2019-04-23T10:48:32.839Z,4.27
2019-04-23T10:50:59.590Z,4.33
2019-04-23T10:53:42.764Z,4.03
2019-04-23T10:56:07.560Z,4.17
2019-04-23T11:01:04.500Z,4.93
2019-04-23T11:03:57.199Z,4.03
2019-04-23T11:06:21.518Z,4.60
2019-04-23T11:08:31.236Z,5.93
2019-04-23T11:11:12.134Z,5.27
2019-04-23T11:13:38.271Z,5.17
2019-04-23T11:16:41.887Z,5.53
2019-04-23T11:18:45.440Z,5.73
2019-04-23T11:23:34.397Z,6.87
2019-04-23T11:26:12.238Z,6.80
2019-04-23T11:28:41.702Z,7.47
2019-04-23T11:31:15.749Z,7.73
2019-04-23T11:33:39.225Z,6.47
2019-04-23T11:36:33.691Z,7.40
2019-04-23T11:41:12.824Z,7.20
2019-04-23T11:43:32.551Z,8.07
2019-04-23T11:46:25.748Z,7.50
2019-04-23T11:51:39.402Z,8.03
2019-04-23T11:53:54.381Z,10.73
2019-04-23T11:56:12.128Z,9.93
2019-04-23T12:01:23.624Z,8.27
2019-04-23T12:03:56.460Z,8.03
2019-04-23T12:06:25.031Z,7.80
2019-04-23T12:09:16.100Z,8.37
2019-04-23T12:11:46.486Z,7.43
2019-04-23T12:14:02.835Z,9.60
2019-04-23T12:16:34.385Z,7.50
2019-04-23T12:19:25.466Z,6.93
2019-04-23T12:21:43.406Z,6.90
2019-04-23T12:24:04.871Z,7.23
2019-04-23T12:26:38.944Z,7.23
2019-04-23T12:28:57.694Z,6.77
2019-04-23T12:31:34.453Z,6.70
2019-04-23T12:34:07.234Z,7.00
2019-04-23T12:36:37.940Z,8.50
2019-04-23T12:39:08.752Z,7.23
2019-04-23T12:41:36.211Z,6.37
2019-04-23T12:46:39.201Z,6.90
2019-04-23T12:51:45.209Z,7.43
2019-04-23T12:54:06.375Z,7.30
2019-04-23T12:56:43.764Z,7.67
2019-04-23T12:58:56.238Z,6.80
2019-04-23T13:01:44.297Z,7.40
2019-04-23T13:03:59.773Z,7.80
2019-04-23T13:06:27.726Z,8.47
2019-04-23T13:09:00.959Z,7.67
2019-04-23T13:11:34.439Z,9.07
2019-04-23T13:14:30.074Z,8.37
2019-04-23T13:16:40.624Z,8.50
2019-04-23T13:19:08.017Z,8.17
2019-04-23T13:21:51.329Z,8.57
2019-04-23T13:23:55.799Z,7.90
2019-04-23T13:26:24.198Z,8.10
2019-04-23T13:29:00.900Z,8.17
2019-04-23T13:31:39.773Z,8.53
2019-04-23T13:33:58.716Z,8.67
2019-04-23T13:36:36.345Z,7.93
2019-04-23T13:38:58.425Z,8.97
2019-04-23T13:43:53.149Z,8.60
2019-04-23T13:46:32.710Z,8.60
2019-04-23T13:48:53.637Z,9.30
2019-04-23T13:53:59.333Z,9.73
2019-04-23T13:59:09.366Z,9.57
2019-04-23T14:01:35.445Z,10.23
2019-04-23T14:04:04.669Z,9.50
2019-04-23T14:08:59.853Z,10.00
2019-04-23T14:11:34.249Z,9.63
2019-04-23T14:21:44.457Z,8.80
2019-04-23T14:28:58.895Z,9.50
2019-04-23T14:31:28.555Z,9.20
2019-04-23T14:34:04.795Z,10.20
2019-04-23T14:36:36.324Z,12.43
2019-04-23T14:41:26.303Z,10.03
2019-04-23T14:46:47.194Z,8.63
2019-04-23T14:51:39.828Z,9.40
2019-04-23T14:54:23.585Z,8.50
2019-04-23T15:01:35.383Z,7.83
2019-04-23T15:04:05.656Z,10.17
2019-04-23T15:06:36.313Z,8.47
2019-04-23T15:09:20.986Z,8.17
2019-04-23T15:11:35.324Z,9.53
2019-04-23T15:14:06.158Z,7.97
2019-04-23T15:24:14.026Z,6.63
2019-04-23T15:28:46.740Z,6.80
2019-04-23T15:31:42.838Z,6.73
2019-04-23T15:34:13.927Z,6.23
2019-04-23T15:39:24.378Z,5.20
2019-04-23T15:41:38.239Z,7.47
2019-04-23T15:44:10.437Z,5.22
2019-04-23T15:46:41.070Z,4.97
2019-04-23T15:49:22.938Z,4.62
2019-04-23T16:01:34.122Z,5.10
2019-04-23T16:03:39.618Z,3.72
2019-04-23T16:06:08.722Z,3.50
2019-04-23T16:16:41.484Z,2.90
2019-04-23T16:22:04.591Z,4.30
2019-04-23T16:24:26.307Z,3.47
2019-04-23T16:27:07.742Z,3.30
2019-04-23T16:29:46.909Z,3.70
2019-04-23T16:32:09.595Z,3.53
2019-04-23T16:34:28.635Z,5.43
2019-04-23T16:37:04.629Z,3.58
2019-04-23T16:39:31.135Z,3.47
2019-04-23T16:42:13.627Z,5.03
2019-04-23T16:44:38.280Z,3.03
2019-04-23T16:47:11.778Z,3.15
2019-04-23T16:49:36.905Z,2.80
2019-04-23T16:52:01.316Z,3.65
2019-04-23T16:54:42.375Z,3.53
2019-04-23T17:00:02.512Z,2.70
2019-04-23T17:02:12.352Z,3.35
2019-04-23T17:04:32.975Z,3.60
2019-04-23T17:09:42.703Z,3.10
2019-04-23T17:14:49.738Z,3.05
2019-04-23T17:16:53.320Z,3.12
2019-04-23T17:19:28.245Z,2.25
2019-04-23T17:27:08.239Z,3.97
2019-04-23T17:32:06.673Z,3.08
2019-04-23T17:37:21.710Z,2.05
2019-04-23T17:40:03.601Z,1.83
2019-04-23T17:42:24.332Z,2.10
2019-04-23T17:45:24.452Z,2.92
2019-04-23T17:47:30.070Z,2.65
2019-04-23T17:50:10.775Z,1.80
2019-04-23T17:52:26.342Z,1.67
2019-04-23T17:55:15.453Z,2.08
2019-04-23T17:57:29.643Z,4.30
2019-04-23T18:00:23.143Z,4.10
2019-04-23T18:02:49.680Z,1.80
2019-04-23T18:05:13.142Z,3.30
2019-04-23T18:07:43.932Z,2.25
2019-04-23T18:10:12.368Z,3.25
2019-04-23T18:12:38.992Z,3.53
2019-04-23T18:15:03.460Z,3.17
2019-04-23T18:17:37.495Z,4.32
2019-04-23T18:23:04.806Z,2.83
2019-04-23T18:30:15.650Z,3.30
2019-04-23T18:35:19.468Z,2.50
2019-04-23T18:37:41.473Z,2.50
2019-04-23T18:40:13.669Z,2.50
2019-04-23T18:42:43.799Z,2.17
2019-04-23T18:45:24.862Z,2.55
2019-04-23T18:47:54.846Z,2.40
2019-04-23T18:50:26.090Z,3.05
2019-04-23T18:55:24.341Z,2.33
2019-04-23T18:57:46.878Z,3.92
2019-04-23T19:00:17.238Z,2.53
2019-04-23T19:05:41.548Z,3.37
2019-04-23T19:08:32.146Z,2.28
2019-04-23T19:10:36.159Z,3.03
2019-04-23T19:18:16.936Z,2.28
2019-04-23T19:23:16.027Z,1.83
2019-04-23T19:25:44.167Z,3.20
2019-04-23T19:28:44.611Z,3.10
2019-04-23T19:33:49.235Z,2.47
2019-04-23T19:36:20.253Z,3.12
2019-04-23T19:38:43.420Z,2.17
2019-04-23T19:41:29.728Z,2.55
2019-04-23T19:43:44.918Z,2.08
2019-04-23T19:46:34.865Z,2.08
2019-04-23T19:51:08.758Z,4.47
2019-04-23T19:53:54.894Z,3.95
2019-04-23T19:56:16.443Z,2.85
2019-04-23T19:58:44.941Z,4.10
2019-04-23T20:01:16.554Z,5.47
2019-04-23T20:03:46.353Z,1.70
2019-04-23T20:06:15.027Z,3.10
2019-04-23T20:08:55.970Z,2.97
2019-04-23T20:11:07.781Z,2.72
2019-04-23T20:13:45.333Z,5.55
2019-04-23T20:16:13.913Z,2.20
2019-04-23T20:21:03.430Z,2.00
2019-04-23T20:23:56.004Z,2.37
2019-04-23T20:29:14.936Z,3.47
2019-04-23T20:32:53.939Z,2.65
2019-04-23T20:34:06.042Z,2.20
2019-04-23T20:36:23.112Z,2.33
2019-04-23T20:39:02.546Z,2.22
2019-04-23T20:41:21.782Z,5.10
2019-04-23T20:44:01.335Z,3.10
2019-04-23T20:46:27.574Z,3.35
2019-04-23T20:48:53.106Z,2.80
2019-04-23T20:51:18.745Z,4.75
2019-04-23T20:53:59.275Z,3.80
2019-04-23T20:56:25.401Z,4.03
2019-04-23T20:58:54.732Z,5.15
2019-04-23T21:06:47.055Z,3.80
2019-04-23T21:11:25.025Z,3.90
2019-04-23T21:14:10.841Z,3.25
2019-04-23T21:16:31.049Z,3.25
2019-04-23T21:18:55.042Z,3.70
2019-04-23T21:21:39.994Z,3.28
2019-04-23T21:26:37.151Z,3.47
2019-04-23T21:29:13.514Z,3.33
2019-04-23T21:31:31.986Z,4.60
2019-04-23T21:34:17.757Z,4.07
2019-04-23T21:39:06.209Z,3.67
2019-04-23T21:41:45.320Z,3.70
2019-04-23T21:46:41.212Z,1.80
2019-04-23T21:51:56.474Z,1.40
2019-04-23T21:54:14.937Z,1.17
2019-04-23T21:56:39.596Z,1.77
2019-04-23T22:06:47.786Z,2.35
2019-04-23T22:09:12.402Z,1.70
2019-04-23T22:14:19.323Z,3.03
2019-04-23T22:16:41.063Z,2.83
2019-04-23T22:21:43.430Z,2.35
2019-04-23T22:24:12.372Z,2.33
2019-04-23T22:31:38.790Z,1.65
2019-04-23T22:34:09.216Z,3.10
2019-04-23T22:36:43.244Z,2.83
2019-04-23T22:39:03.067Z,2.35
2019-04-23T22:41:40.073Z,2.20
2019-04-23T22:46:51.087Z,4.18
2019-04-23T22:49:14.620Z,1.73
2019-04-23T22:51:41.508Z,4.30
2019-04-23T22:54:03.755Z,2.70
2019-04-23T22:56:35.121Z,1.80
2019-04-23T22:59:15.358Z,2.55
2019-04-23T23:01:43.173Z,2.53
2019-04-23T23:04:24.394Z,4.05
2019-04-23T23:11:58.201Z,2.87
2019-04-23T23:16:50.383Z,1.70
2019-04-23T23:19:29.875Z,1.70
2019-04-23T23:24:18.335Z,2.45
2019-04-23T23:26:54.157Z,2.42
2019-04-23T23:34:15.577Z,1.90
2019-04-23T23:36:54.938Z,2.58
2019-04-23T23:39:22.429Z,3.15
2019-04-23T23:41:50.138Z,1.40
2019-04-23T23:46:56.264Z,4.25
2019-04-23T23:49:18.573Z,1.92
2019-04-23T23:51:49.318Z,2.40
2019-04-23T23:54:21.540Z,2.95
2019-04-23T23:56:58.305Z,2.08
2019-04-23T23:59:26.956Z,2.85
